Time;durP1;ratioP1;P1;durP2;ratioP2;P2;SDS_P1;SDS_P2;PMS_P1;PMS_P2;Temp;Humidity;BMP_temperature;BMP_pressure;BME280_temperature;BME280_humidity;BME280_pressure;Samples;Min_cycle;Max_cycle;Signal;HPM_P1;HPM_P2
2022/06/01 05:08:17;;;;;;;8.85;5.20;;;;;;;;;;5159357;23;20113;-62
2022/06/01 05:10:43;;;;;;;11.75;5.88;;;;;;;;;;4877364;29;20047;-64
2022/06/01 05:13:10;;;;;;;10.77;5.30;;;;;;;;;;4877481;29;20029;-64
2022/06/01 05:15:40;;;;;;;14.88;5.68;;;;;;;;;;4877542;29;20029;-56
2022/06/01 05:18:09;;;;;;;10.55;4.82;;;;;;;;;;4877670;29;20033;-59
2022/06/01 05:20:35;;;;;;;8.30;4.80;;;;;;;;;;4876669;29;20470;-58
2022/06/01 05:23:01;;;;;;;7.90;4.82;;;;;;;;;;4876250;29;20064;-58
2022/06/01 05:25:27;;;;;;;11.38;5.75;;;;;;;;;;4876896;29;20049;-57
2022/06/01 05:27:53;;;;;;;12.55;4.28;;;;;;;;;;4876890;29;20056;-65
2022/06/01 05:30:20;;;;;;;12.77;4.65;;;;;;;;;;4877249;29;20103;-56
2022/06/01 05:32:46;;;;;;;9.75;4.72;;;;;;;;;;4876543;29;20029;-62
2022/06/01 05:35:12;;;;;;;8.73;4.68;;;;;;;;;;4876680;29;20023;-57
2022/06/01 05:37:38;;;;;;;9.55;4.53;;;;;;;;;;4876614;29;20089;-56
2022/06/01 05:40:04;;;;;;;10.88;4.30;;;;;;;;;;4876093;29;20041;-57
2022/06/01 05:42:30;;;;;;;11.55;4.43;;;;;;;;;;4865989;29;20098;-58
2022/06/01 05:44:56;;;;;;;12.73;4.80;;;;;;;;;;4867748;29;20171;-61
2022/06/01 05:47:22;;;;;;;8.95;4.68;;;;;;;;;;4866377;29;20030;-65
2022/06/01 05:49:48;;;;;;;9.38;4.57;;;;;;;;;;4865963;29;20694;-56
2022/06/01 05:52:18;;;;;;;9.02;4.47;;;;;;;;;;4862531;29;20026;-61
2022/06/01 05:54:44;;;;;;;8.43;4.95;;;;;;;;;;4858328;29;20033;-64
2022/06/01 05:57:10;;;;;;;8.63;5.18;;;;;;;;;;4858403;29;20057;-59
2022/06/01 05:59:36;;;;;;;10.27;5.03;;;;;;;;;;4858108;29;20053;-62
2022/06/01 06:02:02;;;;;;;11.90;4.70;;;;;;;;;;4861068;29;20040;-70
2022/06/01 06:04:28;;;;;;;11.55;5.32;;;;;;;;;;4871335;29;20037;-69
2022/06/01 06:06:54;;;;;;;8.82;5.18;;;;;;;;;;4869790;29;20085;-57
2022/06/01 06:09:24;;;;;;;9.55;5.07;;;;;;;;;;4855136;29;20046;-57
2022/06/01 06:11:51;;;;;;;10.70;5.90;;;;;;;;;;4852227;29;20026;-57
2022/06/01 06:14:17;;;;;;;12.23;5.65;;;;;;;;;;4851787;29;20026;-70
2022/06/01 06:16:44;;;;;;;13.95;5.78;;;;;;;;;;4850688;29;20033;-60
2022/06/01 06:19:11;;;;;;;14.65;5.63;;;;;;;;;;4855795;29;20110;-62
2022/06/01 06:21:37;;;;;;;12.50;5.13;;;;;;;;;;4858319;29;20069;-59
2022/06/01 06:24:07;;;;;;;10.25;5.20;;;;;;;;;;4851739;29;20029;-67
2022/06/01 06:26:33;;;;;;;8.65;6.20;;;;;;;;;;4855953;29;20034;-57
2022/06/01 06:29:03;;;;;;;14.82;5.68;;;;;;;;;;4861606;29;20117;-68
2022/06/01 06:31:30;;;;;;;19.10;6.50;;;;;;;;;;4844822;29;20391;-57
2022/06/01 06:33:56;;;;;;;9.32;5.13;;;;;;;;;;4861570;29;20029;-58
2022/06/01 06:36:22;;;;;;;9.73;4.60;;;;;;;;;;4861239;29;20037;-61
2022/06/01 06:38:48;;;;;;;9.27;4.30;;;;;;;;;;4861202;29;20045;-66
2022/06/01 06:41:15;;;;;;;8.05;5.20;;;;;;;;;;4846915;29;20098;-68
2022/06/01 06:43:42;;;;;;;11.00;5.18;;;;;;;;;;4861456;29;20022;-58
2022/06/01 06:46:26;;;;;;;8.60;5.47;;;;;;;;;;4861665;29;20173;-58
2022/06/01 06:48:52;;;;;;;9.07;4.13;;;;;;;;;;4850310;29;20064;-66
2022/06/01 06:51:19;;;;;;;9.68;3.58;;;;;;;;;;4853287;29;20075;-59
2022/06/01 06:53:45;;;;;;;14.65;5.80;;;;;;;;;;4851776;29;20475;-58
2022/06/01 06:56:11;;;;;;;33.55;7.13;;;;;;;;;;4849908;29;20581;-58
2022/06/01 06:58:37;;;;;;;14.25;5.43;;;;;;;;;;4848530;29;20026;-58
2022/06/01 07:01:04;;;;;;;15.35;5.78;;;;;;;;;;4852551;29;20045;-58
2022/06/01 07:03:30;;;;;;;11.20;6.15;;;;;;;;;;4860998;29;20435;-60
2022/06/01 07:06:09;;;;;;;24.05;6.65;;;;;;;;;;4860699;29;20470;-65
2022/06/01 07:08:35;;;;;;;22.05;6.75;;;;;;;;;;4851501;29;20068;-58
2022/06/01 07:11:02;;;;;;;13.30;6.05;;;;;;;;;;4860954;29;20053;-57
2022/06/01 07:13:28;;;;;;;12.20;5.70;;;;;;;;;;4859691;29;20470;-58
2022/06/01 07:16:00;;;;;;;12.75;6.10;;;;;;;;;;4860507;29;20040;-64
2022/06/01 07:18:26;;;;;;;12.93;6.00;;;;;;;;;;4860539;29;20112;-57
2022/06/01 07:20:52;;;;;;;15.00;6.00;;;;;;;;;;4849121;29;20040;-60
2022/06/01 07:23:18;;;;;;;10.75;4.95;;;;;;;;;;4851789;29;20042;-68
2022/06/01 07:25:44;;;;;;;10.90;5.95;;;;;;;;;;4856381;29;20037;-59
2022/06/01 07:28:10;;;;;;;13.90;5.72;;;;;;;;;;4860841;29;20034;-63
2022/06/01 07:30:37;;;;;;;12.80;6.35;;;;;;;;;;4843546;29;20065;-61
2022/06/01 07:33:04;;;;;;;12.02;6.20;;;;;;;;;;4845283;29;20026;-60
2022/06/01 07:35:30;;;;;;;12.30;6.35;;;;;;;;;;4849891;29;20025;-62
2022/06/01 07:43:25;;;;;;;12.75;5.60;;;;;;;;;;4859213;29;20197;-62
2022/06/01 07:45:51;;;;;;;13.10;6.60;;;;;;;;;;4852164;29;20136;-64
2022/06/01 07:48:17;;;;;;;10.68;5.50;;;;;;;;;;4852051;29;20037;-61
2022/06/01 07:50:44;;;;;;;10.10;5.72;;;;;;;;;;4850318;29;20048;-62
2022/06/01 07:53:10;;;;;;;11.10;5.68;;;;;;;;;;4850780;29;20474;-63
2022/06/01 07:55:37;;;;;;;11.32;5.43;;;;;;;;;;4851721;29;20113;-64
2022/06/01 07:58:04;;;;;;;11.98;5.50;;;;;;;;;;4850035;29;20022;-63
2022/06/01 08:00:30;;;;;;;9.65;4.88;;;;;;;;;;4850624;29;20052;-63
2022/06/01 08:02:56;;;;;;;13.63;5.07;;;;;;;;;;4851230;29;20037;-59
2022/06/01 08:05:23;;;;;;;9.40;4.55;;;;;;;;;;4849801;29;20022;-63
2022/06/01 08:07:49;;;;;;;13.38;4.35;;;;;;;;;;4850287;29;20141;-63
2022/06/01 08:10:17;;;;;;;9.55;4.70;;;;;;;;;;4850230;29;20030;-61
2022/06/01 08:15:28;;;;;;;13.30;4.43;;;;;;;;;;4851273;29;20070;-61
2022/06/01 08:17:55;;;;;;;10.80;4.50;;;;;;;;;;4848470;29;20093;-64
2022/06/01 08:20:21;;;;;;;10.45;4.70;;;;;;;;;;4844208;29;20078;-62
2022/06/01 08:22:48;;;;;;;8.40;3.35;;;;;;;;;;4849538;29;20038;-63
2022/06/01 08:25:16;;;;;;;11.85;4.70;;;;;;;;;;4851079;29;20021;-62
2022/06/01 08:27:42;;;;;;;5.72;3.47;;;;;;;;;;4849891;29;20044;-59
2022/06/01 08:30:08;;;;;;;6.15;3.13;;;;;;;;;;4849410;29;20037;-63
2022/06/01 08:32:34;;;;;;;13.45;4.43;;;;;;;;;;4849618;29;20126;-63
2022/06/01 08:35:01;;;;;;;8.07;3.40;;;;;;;;;;4848302;29;20040;-63
2022/06/01 08:37:27;;;;;;;10.77;3.60;;;;;;;;;;4850895;29;20022;-63
2022/06/01 08:39:53;;;;;;;10.88;4.78;;;;;;;;;;4849077;29;20045;-60
2022/06/01 08:42:20;;;;;;;4.28;2.65;;;;;;;;;;4850341;29;20042;-62
2022/06/01 08:44:48;;;;;;;10.00;4.10;;;;;;;;;;4849201;29;20067;-59
2022/06/01 08:47:20;;;;;;;12.60;4.63;;;;;;;;;;4848795;29;20451;-59
2022/06/01 08:49:46;;;;;;;11.45;4.10;;;;;;;;;;4856104;29;20029;-61
2022/06/01 08:52:12;;;;;;;6.80;3.40;;;;;;;;;;4855713;29;20141;-59
2022/06/01 08:54:39;;;;;;;7.53;3.45;;;;;;;;;;4849269;29;20030;-61
2022/06/01 08:57:11;;;;;;;12.05;3.78;;;;;;;;;;4849298;29;20085;-61
2022/06/01 08:59:44;;;;;;;12.00;4.03;;;;;;;;;;4849588;29;20045;-59
2022/06/01 09:02:16;;;;;;;9.05;4.40;;;;;;;;;;4849757;29;20090;-59
2022/06/01 09:04:46;;;;;;;8.25;4.50;;;;;;;;;;4843308;29;20029;-60
2022/06/01 09:07:21;;;;;;;12.45;3.97;;;;;;;;;;4840645;29;20034;-62
2022/06/01 09:09:53;;;;;;;8.18;4.07;;;;;;;;;;4839828;29;20125;-59
2022/06/01 09:12:19;;;;;;;;;;;;;;;;;;4840609;29;20049;-62
2022/06/01 09:14:50;;;;;;;8.32;4.50;;;;;;;;;;4840892;29;19925;-59
2022/06/01 09:17:16;;;;;;;12.88;4.90;;;;;;;;;;4840178;29;20064;-60
2022/06/01 09:22:37;;;;;;;12.35;5.85;;;;;;;;;;4845185;29;20626;-60
2022/06/01 09:25:06;;;;;;;9.85;6.07;;;;;;;;;;4847203;29;20042;-61
2022/06/01 09:27:43;;;;;;;14.10;6.60;;;;;;;;;;4848811;29;20100;-60
2022/06/01 09:30:26;;;;;;;8.50;4.35;;;;;;;;;;4846619;29;20026;-60
2022/06/01 09:33:01;;;;;;;16.73;11.00;;;;;;;;;;4846127;29;20390;-58
2022/06/01 09:35:47;;;;;;;13.32;3.90;;;;;;;;;;4853770;29;20037;-60
2022/06/01 09:38:22;;;;;;;20.83;14.80;;;;;;;;;;4855045;29;20069;-60
2022/06/01 09:41:00;;;;;;;22.27;14.18;;;;;;;;;;4846700;29;20401;-61
2022/06/01 09:43:27;;;;;;;14.88;7.13;;;;;;;;;;4843605;29;20098;-60
2022/06/01 09:45:54;;;;;;;15.82;8.85;;;;;;;;;;4839902;29;20034;-63
2022/06/01 09:48:28;;;;;;;15.73;8.73;;;;;;;;;;4842838;29;20034;-62
2022/06/01 09:51:13;;;;;;;12.25;2.58;;;;;;;;;;4844407;29;20108;-63
2022/06/01 09:53:44;;;;;;;8.93;3.13;;;;;;;;;;4848538;29;20098;-60
2022/06/01 09:56:10;;;;;;;15.17;9.30;;;;;;;;;;4846867;29;20122;-60
2022/06/01 10:06:54;;;;;;;7.75;3.03;;;;;;;;;;4850357;29;20068;-65
2022/06/01 10:09:22;;;;;;;11.23;4.40;;;;;;;;;;4849488;29;20514;-62
2022/06/01 10:11:51;;;;;;;9.13;3.17;;;;;;;;;;4853496;29;20066;-61
2022/06/01 10:14:20;;;;;;;8.20;4.38;;;;;;;;;;4843084;29;20531;-60
2022/06/01 10:16:56;;;;;;;11.05;4.07;;;;;;;;;;4860304;29;20532;-63
2022/06/01 10:19:28;;;;;;;7.28;3.08;;;;;;;;;;4855890;29;20482;-59
2022/06/01 10:21:57;;;;;;;8.73;3.20;;;;;;;;;;4846499;29;20046;-60
2022/06/01 10:24:26;;;;;;;11.30;3.58;;;;;;;;;;4848109;29;20038;-63
2022/06/01 10:26:55;;;;;;;11.82;4.25;;;;;;;;;;4848479;29;20112;-63
2022/06/01 10:29:26;;;;;;;12.07;4.07;;;;;;;;;;4849268;29;20057;-64
2022/06/01 10:32:00;;;;;;;10.52;4.50;;;;;;;;;;4848818;29;20041;-60
2022/06/01 10:34:31;;;;;;;15.98;4.30;;;;;;;;;;4847057;29;20050;-61
2022/06/01 10:37:03;;;;;;;13.88;4.90;;;;;;;;;;4847511;29;20037;-59
2022/06/01 10:39:29;;;;;;;9.15;4.20;;;;;;;;;;4846828;29;20041;-61
2022/06/01 10:42:03;;;;;;;11.00;4.13;;;;;;;;;;4847125;29;20034;-60
2022/06/01 10:44:54;;;;;;;9.60;3.88;;;;;;;;;;4848045;29;20466;-60
2022/06/01 10:47:35;;;;;;;11.00;4.20;;;;;;;;;;4848568;29;20054;-60
2022/06/01 10:50:05;;;;;;;11.80;4.30;;;;;;;;;;4852226;29;20488;-59
2022/06/01 10:52:35;;;;;;;9.82;3.92;;;;;;;;;;4851060;29;20037;-60
2022/06/01 10:55:01;;;;;;;10.80;4.38;;;;;;;;;;4849827;29;20033;-64
2022/06/01 10:57:27;;;;;;;9.80;4.00;;;;;;;;;;4851719;29;20159;-59
2022/06/01 10:59:54;;;;;;;12.23;4.22;;;;;;;;;;4851099;29;20491;-60
2022/06/01 11:02:38;;;;;;;11.75;4.10;;;;;;;;;;4849846;29;20038;-62
2022/06/01 11:05:16;;;;;;;9.02;4.60;;;;;;;;;;4850083;29;20486;-64
2022/06/01 11:08:00;;;;;;;9.48;4.78;;;;;;;;;;4850058;29;20054;-64
2022/06/01 11:10:26;;;;;;;15.75;6.90;;;;;;;;;;4849646;29;20030;-63
2022/06/01 11:12:59;;;;;;;15.38;7.32;;;;;;;;;;4845837;29;20050;-60
2022/06/01 11:15:31;;;;;;;10.75;4.38;;;;;;;;;;4841175;29;20026;-63
2022/06/01 11:18:06;;;;;;;8.20;4.28;;;;;;;;;;4841019;29;20054;-61
2022/06/01 11:20:49;;;;;;;12.43;4.28;;;;;;;;;;4849450;29;20044;-62
2022/06/01 11:23:25;;;;;;;13.23;4.72;;;;;;;;;;4854121;29;20062;-60
2022/06/01 11:26:00;;;;;;;12.32;6.38;;;;;;;;;;4852826;29;20073;-59
2022/06/01 11:28:47;;;;;;;18.77;7.07;;;;;;;;;;4848015;29;20117;-60
2022/06/01 11:31:13;;;;;;;12.68;5.07;;;;;;;;;;4847106;29;20025;-62
2022/06/01 11:33:59;;;;;;;11.65;4.43;;;;;;;;;;4847679;29;20079;-64
2022/06/01 11:36:35;;;;;;;45.53;22.92;;;;;;;;;;4844196;29;20137;-60
2022/06/01 11:39:13;;;;;;;104.00;49.08;;;;;;;;;;4841517;29;20034;-60
2022/06/01 11:41:40;;;;;;;382.73;201.80;;;;;;;;;;4859277;29;20085;-68
2022/06/01 11:44:11;;;;;;;729.63;419.88;;;;;;;;;;4847583;29;20060;-65
2022/06/01 11:46:50;;;;;;;439.15;235.25;;;;;;;;;;4850523;29;20105;-65
2022/06/01 11:49:31;;;;;;;231.43;121.35;;;;;;;;;;4850408;29;20423;-61
2022/06/01 11:52:12;;;;;;;21.17;9.97;;;;;;;;;;4850371;29;20070;-64
2022/06/01 11:54:38;;;;;;;29.08;13.07;;;;;;;;;;4848118;29;20033;-66
2022/06/01 11:57:19;;;;;;;180.93;88.00;;;;;;;;;;4846245;29;20052;-66
2022/06/01 11:59:54;;;;;;;12.38;5.35;;;;;;;;;;4848388;29;20034;-65
2022/06/01 12:02:40;;;;;;;50.78;24.08;;;;;;;;;;4849856;29;20061;-61
2022/06/01 12:05:29;;;;;;;28.67;13.85;;;;;;;;;;4850516;29;20128;-65
2022/06/01 12:08:02;;;;;;;24.55;10.48;;;;;;;;;;4841942;29;20046;-61
2022/06/01 12:10:33;;;;;;;34.60;13.18;;;;;;;;;;4849770;29;20030;-61
2022/06/01 12:13:01;;;;;;;42.28;20.80;;;;;;;;;;4849486;29;20591;-60
2022/06/01 12:15:37;;;;;;;15.25;5.53;;;;;;;;;;4860035;29;20025;-62
2022/06/01 12:18:04;;;;;;;11.05;3.80;;;;;;;;;;4859780;29;20029;-60
2022/06/01 12:20:33;;;;;;;8.98;3.30;;;;;;;;;;4858924;29;20030;-62
2022/06/01 12:28:45;;;;;;;7.72;3.97;;;;;;;;;;4859070;29;20132;-63
2022/06/01 12:31:11;;;;;;;9.30;3.20;;;;;;;;;;4860089;29;20086;-59
2022/06/01 12:33:56;;;;;;;10.80;3.65;;;;;;;;;;4859623;29;20045;-65
2022/06/01 12:36:22;;;;;;;10.60;4.13;;;;;;;;;;4859623;29;20025;-64
2022/06/01 12:38:48;;;;;;;8.43;4.10;;;;;;;;;;4858603;29;20474;-60
2022/06/01 12:41:25;;;;;;;9.65;4.32;;;;;;;;;;4859032;29;20042;-63
2022/06/01 12:43:56;;;;;;;13.52;3.83;;;;;;;;;;4842935;29;20375;-64
2022/06/01 12:46:24;;;;;;;10.48;3.65;;;;;;;;;;4859345;29;20029;-60
2022/06/01 12:48:50;;;;;;;8.55;3.78;;;;;;;;;;4859119;29;20022;-60
2022/06/01 12:51:18;;;;;;;8.88;3.92;;;;;;;;;;4858730;29;20493;-59
2022/06/01 12:53:44;;;;;;;11.68;4.10;;;;;;;;;;4859422;29;20081;-60
2022/06/01 12:56:14;;;;;;;13.45;3.97;;;;;;;;;;4859012;29;20316;-63
2022/06/01 12:58:40;;;;;;;9.27;4.10;;;;;;;;;;4853828;29;20037;-62
2022/06/01 13:01:07;;;;;;;12.48;4.15;;;;;;;;;;4849672;29;20037;-66
2022/06/01 13:03:33;;;;;;;11.95;4.60;;;;;;;;;;4849849;29;20055;-62
2022/06/01 13:06:01;;;;;;;10.82;3.92;;;;;;;;;;4848490;29;20030;-64
2022/06/01 13:08:28;;;;;;;9.25;4.13;;;;;;;;;;4851950;29;20097;-63
2022/06/01 13:10:55;;;;;;;7.93;3.75;;;;;;;;;;4849067;29;20056;-63
2022/06/01 13:13:25;;;;;;;10.27;4.63;;;;;;;;;;4848417;29;20054;-64
2022/06/01 13:16:02;;;;;;;9.32;3.92;;;;;;;;;;4847510;29;20042;-61
2022/06/01 13:18:34;;;;;;;10.43;3.70;;;;;;;;;;4850012;29;20030;-61
2022/06/01 13:21:04;;;;;;;9.07;3.50;;;;;;;;;;4850207;29;20113;-61
2022/06/01 13:23:33;;;;;;;10.43;4.22;;;;;;;;;;4847859;29;20030;-61
2022/06/01 13:26:00;;;;;;;10.20;4.32;;;;;;;;;;4848089;29;20051;-66
2022/06/01 13:28:27;;;;;;;8.93;4.25;;;;;;;;;;4849974;29;20100;-63
2022/06/01 13:30:53;;;;;;;9.95;4.57;;;;;;;;;;4848688;29;20114;-64
2022/06/01 13:33:39;;;;;;;10.45;4.38;;;;;;;;;;4848262;29;20078;-66
2022/06/01 13:36:07;;;;;;;11.23;4.65;;;;;;;;;;4849707;29;20021;-62
2022/06/01 13:38:49;;;;;;;9.60;4.70;;;;;;;;;;4848537;29;20391;-61
2022/06/01 13:41:21;;;;;;;11.88;4.78;;;;;;;;;;4848704;29;20050;-61
2022/06/01 13:43:49;;;;;;;9.18;4.60;;;;;;;;;;4847789;29;20033;-61
2022/06/01 13:46:16;;;;;;;11.15;4.65;;;;;;;;;;4848935;29;20035;-61
2022/06/01 13:48:48;;;;;;;10.02;4.63;;;;;;;;;;4849521;29;20041;-60
2022/06/01 13:51:26;;;;;;;14.95;5.05;;;;;;;;;;4848554;29;20025;-62
2022/06/01 13:53:52;;;;;;;11.45;4.80;;;;;;;;;;4848069;29;20030;-62
2022/06/01 13:56:21;;;;;;;11.77;4.63;;;;;;;;;;4848480;29;20047;-61
2022/06/01 13:58:55;;;;;;;10.77;4.40;;;;;;;;;;4849750;29;20033;-61
2022/06/01 14:01:48;;;;;;;12.05;4.20;;;;;;;;;;4849350;29;20090;-61
2022/06/01 14:04:20;;;;;;;10.45;4.80;;;;;;;;;;4845458;29;20037;-61
2022/06/01 14:06:51;;;;;;;13.57;4.47;;;;;;;;;;4832710;29;20457;-64
2022/06/01 14:09:17;;;;;;;13.43;4.63;;;;;;;;;;4848060;29;20234;-62
2022/06/01 14:11:43;;;;;;;8.48;4.65;;;;;;;;;;4857471;29;20114;-62
2022/06/01 14:14:16;;;;;;;11.40;4.30;;;;;;;;;;4858144;29;20434;-61
2022/06/01 14:16:53;;;;;;;11.90;4.95;;;;;;;;;;4857953;29;20097;-62
2022/06/01 14:19:19;;;;;;;12.32;4.75;;;;;;;;;;4857971;29;20391;-63
2022/06/01 14:21:48;;;;;;;13.07;4.90;;;;;;;;;;4854337;29;20064;-62
2022/06/01 14:24:14;;;;;;;12.52;4.95;;;;;;;;;;4860743;29;20057;-61
2022/06/01 14:29:24;;;;;;;14.75;4.90;;;;;;;;;;4843823;29;20491;-62
2022/06/01 14:31:51;;;;;;;16.77;6.85;;;;;;;;;;4858002;29;20044;-61
2022/06/01 14:34:19;;;;;;;12.45;4.43;;;;;;;;;;4846384;29;20030;-61
2022/06/01 14:36:45;;;;;;;12.00;5.40;;;;;;;;;;4853709;29;20026;-64
2022/06/01 14:39:11;;;;;;;29.00;11.15;;;;;;;;;;4852164;29;20045;-61
2022/06/01 14:41:41;;;;;;;11.05;4.60;;;;;;;;;;4854467;29;20188;-63
2022/06/01 14:44:11;;;;;;;11.48;4.40;;;;;;;;;;4829136;29;20746;-67
2022/06/01 14:46:37;;;;;;;11.43;4.75;;;;;;;;;;4854405;29;20033;-65
2022/06/01 14:49:03;;;;;;;14.38;6.05;;;;;;;;;;4852170;29;20390;-61
2022/06/01 14:51:31;;;;;;;12.05;4.90;;;;;;;;;;4847691;29;20113;-59
2022/06/01 14:54:00;;;;;;;10.38;4.60;;;;;;;;;;4857402;29;20389;-64
2022/06/01 14:56:26;;;;;;;12.32;4.70;;;;;;;;;;4846952;29;20024;-61
2022/06/01 14:58:52;;;;;;;10.65;4.50;;;;;;;;;;4852122;29;20044;-62
2022/06/01 15:01:24;;;;;;;10.77;4.60;;;;;;;;;;4853454;29;20045;-60
2022/06/01 15:03:50;;;;;;;10.05;4.75;;;;;;;;;;4845115;29;20026;-60
2022/06/01 15:06:17;;;;;;;9.20;4.72;;;;;;;;;;4842470;29;20529;-61
2022/06/01 15:08:43;;;;;;;15.23;5.80;;;;;;;;;;4842150;29;20058;-66
2022/06/01 15:11:09;;;;;;;9.70;5.07;;;;;;;;;;4841923;29;20036;-62
2022/06/01 15:13:36;;;;;;;8.15;4.80;;;;;;;;;;4841910;29;20045;-66
2022/06/01 15:16:04;;;;;;;15.73;5.55;;;;;;;;;;4842042;29;20030;-63
2022/06/01 15:18:31;;;;;;;11.43;4.88;;;;;;;;;;4842179;29;20034;-62
2022/06/01 15:20:57;;;;;;;10.25;5.18;;;;;;;;;;4858400;29;20061;-62
2022/06/01 15:23:23;;;;;;;7.45;4.50;;;;;;;;;;4857795;29;20037;-61
2022/06/01 15:25:50;;;;;;;13.50;5.10;;;;;;;;;;4852767;29;20029;-65
2022/06/01 15:28:16;;;;;;;10.43;4.78;;;;;;;;;;4846050;29;20037;-60
2022/06/01 15:41:42;;;;;;;8.40;5.28;;;;;;;;;;4849417;29;20089;-62
2022/06/01 15:44:08;;;;;;;12.98;6.07;;;;;;;;;;4855096;29;20030;-65
2022/06/01 15:46:36;;;;;;;12.77;5.75;;;;;;;;;;4844612;29;20171;-61
2022/06/01 15:49:06;;;;;;;12.18;5.40;;;;;;;;;;4854420;29;20026;-66
2022/06/01 15:51:33;;;;;;;9.27;5.40;;;;;;;;;;4850943;29;20398;-61
2022/06/01 15:53:59;;;;;;;9.18;5.47;;;;;;;;;;4847446;29;20428;-61
2022/06/01 15:56:25;;;;;;;9.93;5.60;;;;;;;;;;4856345;29;20097;-63
2022/06/01 15:58:51;;;;;;;12.93;5.00;;;;;;;;;;4845226;29;20060;-66
2022/06/01 16:01:17;;;;;;;11.13;5.57;;;;;;;;;;4852141;29;20033;-61
2022/06/01 16:03:44;;;;;;;13.68;6.28;;;;;;;;;;4851300;29;20036;-61
2022/06/01 16:06:10;;;;;;;13.98;5.60;;;;;;;;;;4846038;29;20026;-60
2022/06/01 16:08:36;;;;;;;9.13;5.93;;;;;;;;;;4847054;29;20148;-61
2022/06/01 16:11:02;;;;;;;10.52;5.70;;;;;;;;;;4863532;29;20057;-64
2022/06/01 16:13:28;;;;;;;14.07;5.38;;;;;;;;;;4868322;29;20514;-60
2022/06/01 16:15:54;;;;;;;14.68;5.72;;;;;;;;;;4870085;29;20033;-63
2022/06/01 16:18:21;;;;;;;15.95;5.53;;;;;;;;;;4861939;29;20154;-63
2022/06/01 16:20:47;;;;;;;13.90;5.10;;;;;;;;;;4873863;29;20033;-66
2022/06/01 16:23:13;;;;;;;11.35;5.03;;;;;;;;;;4865384;29;20021;-63
2022/06/01 16:25:39;;;;;;;10.25;5.68;;;;;;;;;;4877312;29;20481;-64
2022/06/01 16:28:06;;;;;;;13.13;5.80;;;;;;;;;;4867025;29;20033;-64
2022/06/01 16:30:32;;;;;;;12.70;5.20;;;;;;;;;;4858666;29;20026;-65
2022/06/01 16:32:58;;;;;;;14.48;5.65;;;;;;;;;;4858244;29;20128;-65
2022/06/01 16:35:26;;;;;;;11.25;5.28;;;;;;;;;;4863448;29;20111;-61
2022/06/01 16:37:52;;;;;;;10.45;5.90;;;;;;;;;;4877028;29;20073;-63
2022/06/01 16:40:19;;;;;;;15.95;5.70;;;;;;;;;;4869216;29;20043;-60
2022/06/01 16:42:47;;;;;;;15.15;5.85;;;;;;;;;;4867938;29;20050;-59
2022/06/01 16:45:15;;;;;;;9.60;5.20;;;;;;;;;;4869404;29;20029;-66
2022/06/01 16:47:41;;;;;;;11.82;5.22;;;;;;;;;;4870380;29;20056;-65
2022/06/01 16:50:08;;;;;;;10.82;5.20;;;;;;;;;;4876453;29;20025;-61
2022/06/01 16:52:34;;;;;;;14.43;5.40;;;;;;;;;;4875901;29;20873;-65
2022/06/01 16:55:00;;;;;;;11.88;4.90;;;;;;;;;;4859824;29;20025;-59
2022/06/01 16:57:29;;;;;;;9.70;5.20;;;;;;;;;;4870640;29;20039;-62
2022/06/01 16:59:55;;;;;;;9.77;5.32;;;;;;;;;;4860549;29;20025;-60
2022/06/01 17:02:21;;;;;;;9.73;5.30;;;;;;;;;;4870633;29;20041;-59
2022/06/01 17:04:48;;;;;;;11.25;5.40;;;;;;;;;;4865839;29;20068;-62
2022/06/01 17:07:15;;;;;;;11.05;5.15;;;;;;;;;;4866738;29;20037;-59
2022/06/01 17:09:42;;;;;;;14.15;6.05;;;;;;;;;;4827975;29;1139034;-61
2022/06/01 17:12:09;;;;;;;11.50;6.05;;;;;;;;;;4866477;29;20398;-69
2022/06/01 17:14:36;;;;;;;16.35;6.25;;;;;;;;;;4868309;29;20064;-59
2022/06/01 17:17:02;;;;;;;15.65;6.50;;;;;;;;;;4862664;29;20025;-59
2022/06/01 17:19:29;;;;;;;12.88;6.07;;;;;;;;;;4864054;29;20029;-63
2022/06/01 17:21:55;;;;;;;13.63;6.18;;;;;;;;;;4868497;29;20033;-59
2022/06/01 17:24:21;;;;;;;17.02;6.40;;;;;;;;;;4866616;29;20471;-59
2022/06/01 17:26:47;;;;;;;12.85;6.25;;;;;;;;;;4869006;29;20059;-68
2022/06/01 17:29:14;;;;;;;13.02;6.10;;;;;;;;;;4850577;29;20030;-68
2022/06/01 17:31:40;;;;;;;11.75;6.50;;;;;;;;;;4875192;29;20092;-67
2022/06/01 17:34:06;;;;;;;10.38;5.82;;;;;;;;;;4860132;29;20029;-60
2022/06/01 17:36:34;;;;;;;14.65;6.32;;;;;;;;;;4877533;29;20116;-60
2022/06/01 17:39:00;;;;;;;11.93;6.20;;;;;;;;;;4864689;29;20034;-59
2022/06/01 17:41:26;;;;;;;13.32;6.82;;;;;;;;;;4865695;29;20105;-60
2022/06/01 17:43:52;;;;;;;15.30;6.07;;;;;;;;;;4867797;29;20038;-67
2022/06/01 17:46:19;;;;;;;12.98;6.30;;;;;;;;;;4866926;29;20058;-59
2022/06/01 17:48:45;;;;;;;11.25;6.55;;;;;;;;;;4866327;29;20021;-62
2022/06/01 17:51:12;;;;;;;16.60;6.97;;;;;;;;;;4867084;29;20021;-60
2022/06/01 17:53:39;;;;;;;12.25;6.57;;;;;;;;;;4871225;29;20135;-60
2022/06/01 17:56:08;;;;;;;13.98;6.40;;;;;;;;;;4866144;29;20029;-63
2022/06/01 17:58:34;;;;;;;13.73;6.22;;;;;;;;;;4869090;29;20060;-61
2022/06/01 18:01:02;;;;;;;18.98;7.53;;;;;;;;;;4868805;29;20040;-65
2022/06/01 18:03:28;;;;;;;15.40;7.20;;;;;;;;;;4877058;29;20080;-60
2022/06/01 18:05:54;;;;;;;11.52;6.57;;;;;;;;;;4868900;29;20056;-61
2022/06/01 18:08:24;;;;;;;13.32;6.97;;;;;;;;;;4879890;29;20064;-61
2022/06/01 18:10:50;;;;;;;13.10;7.05;;;;;;;;;;4877365;29;20041;-67
2022/06/01 18:13:16;;;;;;;14.30;6.95;;;;;;;;;;4868234;29;20033;-59
2022/06/01 18:15:43;;;;;;;15.65;7.15;;;;;;;;;;4869968;29;20048;-62
2022/06/01 18:18:11;;;;;;;19.48;7.47;;;;;;;;;;4871511;29;20488;-62
2022/06/01 18:20:38;;;;;;;13.90;7.45;;;;;;;;;;4865773;29;20061;-59
2022/06/01 18:23:05;;;;;;;16.30;7.53;;;;;;;;;;4868841;29;20034;-62
2022/06/01 18:25:32;;;;;;;18.77;8.23;;;;;;;;;;4863183;29;20029;-62
2022/06/01 18:27:58;;;;;;;15.05;7.38;;;;;;;;;;4844769;29;20482;-60
2022/06/01 18:30:24;;;;;;;10.85;7.15;;;;;;;;;;4863577;29;20443;-59
2022/06/01 18:32:51;;;;;;;16.23;7.63;;;;;;;;;;4861119;29;20037;-66
2022/06/01 18:35:17;;;;;;;16.70;8.00;;;;;;;;;;4861415;29;20105;-59
2022/06/01 18:37:43;;;;;;;14.25;7.70;;;;;;;;;;4861802;29;20026;-59
2022/06/01 18:40:10;;;;;;;17.10;7.70;;;;;;;;;;4861492;29;20033;-64
2022/06/01 18:42:39;;;;;;;16.98;8.43;;;;;;;;;;4867504;29;20112;-61
2022/06/01 18:45:05;;;;;;;20.73;10.48;;;;;;;;;;4868772;29;20026;-66
2022/06/01 18:47:31;;;;;;;15.45;8.40;;;;;;;;;;4880160;29;20029;-67
2022/06/01 18:49:57;;;;;;;19.48;9.70;;;;;;;;;;4876357;29;20021;-61
2022/06/01 18:52:23;;;;;;;19.42;10.75;;;;;;;;;;4861122;29;20061;-68
2022/06/01 18:54:49;;;;;;;19.35;9.82;;;;;;;;;;4860620;29;20029;-60
2022/06/01 18:57:15;;;;;;;28.92;13.43;;;;;;;;;;4862403;29;20030;-61
2022/06/01 19:02:26;;;;;;;18.23;10.65;;;;;;;;;;4879385;29;20526;-61
2022/06/01 19:04:52;;;;;;;18.20;10.52;;;;;;;;;;4859637;29;20860;-59
2022/06/01 19:07:20;;;;;;;25.25;13.57;;;;;;;;;;4869371;29;20025;-63
2022/06/01 19:09:47;;;;;;;22.63;10.10;;;;;;;;;;4865816;29;20105;-62
2022/06/01 19:12:13;;;;;;;25.83;14.13;;;;;;;;;;4878578;29;20036;-59
2022/06/01 19:14:43;;;;;;;31.45;15.55;;;;;;;;;;4872985;29;20025;-66
2022/06/01 19:17:09;;;;;;;19.40;11.45;;;;;;;;;;4867726;29;20033;-65
2022/06/01 19:19:43;;;;;;;25.98;15.23;;;;;;;;;;4876799;29;20036;-62
2022/06/01 19:22:10;;;;;;;23.00;12.10;;;;;;;;;;4860780;29;20038;-67
2022/06/01 19:24:36;;;;;;;33.20;16.25;;;;;;;;;;4869480;29;20033;-66
2022/06/01 19:27:06;;;;;;;34.05;16.30;;;;;;;;;;4879256;29;20091;-67
2022/06/01 19:29:32;;;;;;;28.17;12.00;;;;;;;;;;4863338;29;20036;-68
2022/06/01 19:31:59;;;;;;;23.80;11.88;;;;;;;;;;4870848;29;20032;-63
2022/06/01 19:34:26;;;;;;;23.15;12.68;;;;;;;;;;4868966;29;20439;-66
2022/06/01 19:45:09;;;;;;;47.45;27.20;;;;;;;;;;4867637;29;20075;-62
2022/06/01 19:47:35;;;;;;;37.33;21.92;;;;;;;;;;4860023;29;20097;-58
2022/06/01 19:50:02;;;;;;;28.85;15.13;;;;;;;;;;4867855;29;20047;-61
2022/06/01 19:52:28;;;;;;;33.38;18.10;;;;;;;;;;4876913;29;20064;-64
2022/06/01 19:54:54;;;;;;;43.45;21.05;;;;;;;;;;4874060;29;20379;-61
2022/06/01 19:57:20;;;;;;;43.67;22.20;;;;;;;;;;4851567;29;20378;-61
2022/06/01 19:59:47;;;;;;;34.50;19.10;;;;;;;;;;4869535;29;20035;-60
2022/06/01 20:02:13;;;;;;;35.78;16.98;;;;;;;;;;4862935;29;20038;-60
2022/06/01 20:04:40;;;;;;;34.35;17.85;;;;;;;;;;4872797;29;20029;-58
2022/06/01 20:07:06;;;;;;;40.50;19.67;;;;;;;;;;4867890;29;20053;-63
2022/06/01 20:09:33;;;;;;;32.20;17.25;;;;;;;;;;4873670;29;20669;-62
2022/06/01 20:14:46;;;;;;;40.55;20.10;;;;;;;;;;4872005;29;20048;-64
2022/06/01 20:17:13;;;;;;;41.70;22.45;;;;;;;;;;4873519;29;20024;-63
2022/06/01 20:19:40;;;;;;;34.40;19.48;;;;;;;;;;4873166;29;20028;-62
2022/06/01 20:22:05;;;;;;;33.42;17.98;;;;;;;;;;4874200;29;20040;-62
2022/06/01 20:24:32;;;;;;;33.97;15.02;;;;;;;;;;4874802;29;20025;-61
2022/06/01 20:26:58;;;;;;;35.40;16.65;;;;;;;;;;4869383;29;20028;-63
2022/06/01 20:29:24;;;;;;;31.25;15.52;;;;;;;;;;4867145;29;20059;-62
2022/06/01 20:31:50;;;;;;;25.25;13.50;;;;;;;;;;4867875;29;20036;-65
2022/06/01 20:34:17;;;;;;;31.45;16.77;;;;;;;;;;4867972;29;20022;-65
2022/06/01 20:36:45;;;;;;;29.55;16.70;;;;;;;;;;4852487;29;20036;-70
2022/06/01 20:39:11;;;;;;;31.98;14.65;;;;;;;;;;4853762;29;20043;-69